Departure
Castle Airport
Merced, US
cloud Weather
- Wind
- 350° / 10 kt
- Visibility
- 10 SM
- Ceiling
- CLR
- Temp / Dew
- -
- Altimeter
- -
Obs: 2026-09-05T01:55:00.000Z
Raw METAR
METAR KMER 050155Z 35010KT 10SM CLR
local_airport Airport
MER · KMER · Merced, US
Departure
Merced, US
Obs: 2026-09-05T01:55:00.000Z
METAR KMER 050155Z 35010KT 10SM CLR
| Date | Flight | Aircraft | Route | Takeoff | Landing | Duration | Dep Δ |
|---|---|---|---|---|---|---|---|
| 2026-07-26 | N169PX | A11478 | MER → SBP | Jul 26, 19:55 UTC | Jul 26, 21:25 UTC | 1h 30m | - |
| 2026-07-26 | N88BA | AC1B96 | MER → MFR | Jul 26, 18:20 UTC | Jul 26, 20:30 UTC | 2h 10m | - |
| 2026-07-26 | N423CC | A506F9 | - | Jul 26, 16:30 UTC | Jul 26, 17:25 UTC | 55m | - |
| 2026-07-26 | N962TF | AD6543 | MER → SQL | Jul 26, 01:10 UTC | Jul 26, 02:05 UTC | 55m | - |
| 2026-07-25 | N579AM | A76FE4 | - | Jul 25, 20:25 UTC | Jul 25, 20:45 UTC | 20m | - |
| 2026-07-25 | N603PG | A7D3B0 | - | Jul 25, 17:05 UTC | Jul 25, 17:15 UTC | 10m | - |
| 2026-07-25 | N978WC | ADA354 | MER → MER | Jul 25, 16:35 UTC | Jul 25, 16:55 UTC | 20m | - |
| 2026-07-25 | N978WC | ADA354 | - | Jul 25, 15:35 UTC | Jul 25, 16:30 UTC | 55m | - |
| 2026-07-24 | N603PG | A7D3B0 | - | Jul 24, 22:35 UTC | Jul 24, 22:55 UTC | 20m | - |
| 2026-07-24 | N978WC | ADA354 | MER → MER | Jul 24, 21:55 UTC | Jul 24, 23:00 UTC | 1h 5m | - |
| 2026-07-24 | N387MA | A4765F | MER → MER | Jul 24, 16:45 UTC | Jul 24, 18:15 UTC | 1h 30m | - |
| 2026-07-24 | N978WC | ADA354 | MER → MER | Jul 24, 15:20 UTC | Jul 24, 15:45 UTC | 25m | - |
| 2026-07-24 | N603PG | A7D3B0 | - | Jul 24, 02:45 UTC | Jul 24, 03:00 UTC | 15m | - |
| 2026-07-23 | N603PG | A7D3B0 | - | Jul 23, 21:15 UTC | Jul 23, 21:25 UTC | 10m | - |
| 2026-07-23 | N978WC | ADA354 | - | Jul 23, 19:30 UTC | Jul 23, 19:55 UTC | 25m | - |
| 2026-07-23 | N37NA | A4329F | - | Jul 23, 18:00 UTC | Jul 23, 18:15 UTC | 15m | - |
| 2026-07-23 | N41785 | A4F1AF | - | Jul 23, 16:45 UTC | Jul 23, 17:40 UTC | 55m | - |
| 2026-07-23 | N387MA | A4765F | MER → MER | Jul 23, 15:25 UTC | Jul 23, 16:25 UTC | 1h 0m | - |
| 2026-07-22 | N88BA | AC1B96 | MER → RBK | Jul 22, 23:05 UTC | Jul 23, 01:05 UTC | 2h 0m | - |
| 2026-07-22 | N169PX | A11478 | MER → BFL | Jul 22, 16:35 UTC | Jul 22, 18:25 UTC | 1h 50m | - |
| 2026-07-22 | N387MA | A4765F | MER → MER | Jul 22, 15:40 UTC | Jul 22, 16:35 UTC | 55m | - |
| 2026-07-22 | N387MA | A4765F | MER → VIS | Jul 22, 04:05 UTC | Jul 22, 05:00 UTC | 55m | - |
| 2026-07-21 | N717RA | A99786 | - | Jul 21, 23:20 UTC | Jul 22, 00:10 UTC | 50m | - |
| 2026-07-21 | N387MA | A4765F | MER → MER | Jul 21, 22:15 UTC | Jul 22, 00:20 UTC | 2h 5m | - |
| 2026-07-21 | N59LJ | A79C11 | - | Jul 21, 06:50 UTC | Jul 21, 07:05 UTC | 15m | - |
| Date | Flight | Aircraft | Route | Takeoff | Landing | Duration | Arr Δ |
|---|---|---|---|---|---|---|---|
| 2026-07-26 | N39466 | A494EE | - | Jul 26, 17:25 UTC | Jul 26, 18:45 UTC | 1h 20m | - |
| 2026-07-26 | N88BA | AC1B96 | - | Jul 26, 15:55 UTC | Jul 26, 17:45 UTC | 1h 50m | - |
| 2026-07-26 | N8621Q | ABD8CF | - | Jul 26, 14:50 UTC | Jul 26, 16:20 UTC | 1h 30m | - |
| 2026-07-26 | N962TF | AD6543 | - | Jul 26, 00:45 UTC | Jul 26, 01:05 UTC | 20m | - |
| 2026-07-26 | SABLE6 | A1A86D | - | Jul 26, 00:45 UTC | Jul 26, 02:20 UTC | 1h 35m | - |
| 2026-07-25 | SABLE6 | A1A86D | - | Jul 25, 22:45 UTC | Jul 25, 23:10 UTC | 25m | - |
| 2026-07-25 | SABLE1 | A49F6F | - | Jul 25, 22:05 UTC | Jul 25, 23:15 UTC | 1h 10m | - |
| 2026-07-25 | N33SY | A3951D | - | Jul 25, 16:40 UTC | Jul 25, 17:20 UTC | 40m | - |
| 2026-07-25 | N978WC | ADA354 | MER → MER | Jul 25, 16:35 UTC | Jul 25, 16:55 UTC | 20m | - |
| 2026-07-25 | SABLE6 | A1A86D | - | Jul 25, 03:30 UTC | Jul 25, 05:05 UTC | 1h 35m | - |
| 2026-07-24 | N978WC | ADA354 | MER → MER | Jul 24, 21:55 UTC | Jul 24, 23:00 UTC | 1h 5m | - |
| 2026-07-24 | N387MA | A4765F | MER → MER | Jul 24, 16:45 UTC | Jul 24, 18:15 UTC | 1h 30m | - |
| 2026-07-24 | N978WC | ADA354 | MER → MER | Jul 24, 15:20 UTC | Jul 24, 15:45 UTC | 25m | - |
| 2026-07-24 | N169PX | A11478 | - | Jul 24, 13:55 UTC | Jul 24, 17:50 UTC | 3h 55m | - |
| 2026-07-24 | SABLE6 | A1A86D | - | Jul 24, 03:40 UTC | Jul 24, 04:05 UTC | 25m | - |
| 2026-07-23 | SABLE1 | A49F6F | - | Jul 23, 22:20 UTC | Jul 23, 22:40 UTC | 20m | - |
| 2026-07-23 | N37NA | A4329F | - | Jul 23, 18:20 UTC | Jul 23, 18:55 UTC | 35m | - |
| 2026-07-23 | N41785 | A4F1AF | - | Jul 23, 15:55 UTC | Jul 23, 16:40 UTC | 45m | - |
| 2026-07-23 | N275CB | A2B943 | RAL → MER | Jul 23, 16:15 UTC | Jul 23, 18:30 UTC | 2h 15m | - |
| 2026-07-23 | N387MA | A4765F | MER → MER | Jul 23, 15:25 UTC | Jul 23, 16:25 UTC | 1h 0m | - |
| 2026-07-23 | SABLE6 | A1A86D | - | Jul 23, 05:00 UTC | Jul 23, 06:30 UTC | 1h 30m | - |
| 2026-07-23 | SABLE5 | AC9C03 | - | Jul 23, 01:50 UTC | Jul 23, 02:05 UTC | 15m | - |
| 2026-07-22 | N39466 | A494EE | - | Jul 22, 23:30 UTC | Jul 23, 00:55 UTC | 1h 25m | - |
| 2026-07-22 | N37NA | A4329F | - | Jul 22, 23:15 UTC | Jul 22, 23:45 UTC | 30m | - |
| 2026-07-22 | N169PX | A11478 | - | Jul 22, 20:55 UTC | Jul 22, 21:00 UTC | 5m | - |